Terminal Aerodrome Forecast
Issued by NWS

Home | Current Version | Previous Version | Text Only | Print | Product List | Glossary Off
Versions: 1 2 3 4 5 6 7 8 9 10 11 12 13 14 15 16 17 18 19 20 21 22 23 24 25 26 27 28 29

000
FTUS43 KGRB 241729
TAFATW
TAF
KATW 241729Z 2418/2518 23009G15KT P6SM SCT050 BKN090
      TEMPO 2418/2420 -SHRA BKN050
     FM242000 21007KT P6SM VCSH BKN050
      TEMPO 2420/2423 3SM -TSRA BKN025CB
     FM250200 24004KT P6SM SCT045 BKN080
     FM250800 35005KT P6SM SCT006
      TEMPO 2508/2512 3SM BR BKN007
     FM251400 09009G15KT P6SM SCT022 BKN250=

USA.gov is the U.S. government's official web portal to all federal, state and local government web resources and services.